createdAt,value
2022-10-10T00:01:30.922Z,100.00
2022-10-10T00:03:59.066Z,100.00
2022-10-10T00:06:31.799Z,100.00
2022-10-10T00:09:00.278Z,100.00
2022-10-10T00:11:27.408Z,100.00
2022-10-10T00:13:54.423Z,100.00
2022-10-10T00:16:21.800Z,100.00
2022-10-10T00:18:48.956Z,100.00
2022-10-10T00:21:16.079Z,100.00
2022-10-10T00:23:43.285Z,100.00
2022-10-10T00:26:13.767Z,100.00
2022-10-10T00:28:44.686Z,100.00
2022-10-10T00:31:11.687Z,100.00
2022-10-10T00:33:38.959Z,100.00
2022-10-10T00:36:06.901Z,100.00
2022-10-10T00:38:34.327Z,100.00
2022-10-10T00:41:02.051Z,100.00
2022-10-10T00:43:29.821Z,100.00
2022-10-10T00:45:56.891Z,100.00
2022-10-10T00:48:35.153Z,100.00
2022-10-10T00:51:16.569Z,100.00
2022-10-10T00:53:48.738Z,100.00
2022-10-10T00:56:19.302Z,100.00
2022-10-10T00:58:50.467Z,100.00
2022-10-10T01:01:17.618Z,100.00
2022-10-10T01:03:44.711Z,100.00
2022-10-10T01:06:11.821Z,100.00
2022-10-10T01:08:39.364Z,100.00
2022-10-10T01:11:12.509Z,100.00
2022-10-10T01:14:16.303Z,100.00
2022-10-10T01:16:57.809Z,100.00
2022-10-10T01:19:44.075Z,100.00
2022-10-10T01:22:45.145Z,100.00
2022-10-10T01:25:31.409Z,100.00
2022-10-10T01:28:10.768Z,100.00
2022-10-10T01:30:40.187Z,100.00
2022-10-10T01:33:24.870Z,100.00
2022-10-10T01:35:58.910Z,100.00
2022-10-10T01:38:31.167Z,100.00
2022-10-10T01:41:13.555Z,100.00
2022-10-10T01:43:40.803Z,100.00
2022-10-10T01:46:18.817Z,100.00
2022-10-10T01:48:50.098Z,100.00
2022-10-10T01:51:35.508Z,100.00
2022-10-10T01:54:20.922Z,100.00
2022-10-10T01:57:19.799Z,100.00
2022-10-10T02:00:07.450Z,100.00
2022-10-10T02:02:59.666Z,100.00
2022-10-10T02:05:26.737Z,100.00
2022-10-10T02:07:59.416Z,100.00
2022-10-10T02:10:31.877Z,100.00
2022-10-10T02:13:01.569Z,100.00
2022-10-10T02:15:34.293Z,100.00
2022-10-10T02:18:04.427Z,100.00
2022-10-10T02:20:32.902Z,100.00
2022-10-10T02:23:00.079Z,100.00
2022-10-10T02:25:31.586Z,100.00
2022-10-10T02:28:44.529Z,100.00
2022-10-10T02:31:20.087Z,100.00
2022-10-10T02:33:56.491Z,100.00
2022-10-10T02:36:25.090Z,100.00
2022-10-10T02:38:53.901Z,100.00
2022-10-10T02:41:22.090Z,100.00
2022-10-10T02:43:51.661Z,100.00
2022-10-10T02:46:19.570Z,100.00
2022-10-10T02:48:46.911Z,100.00
2022-10-10T02:51:15.767Z,100.00
2022-10-10T02:53:42.901Z,100.00
2022-10-10T02:56:10.033Z,100.00
2022-10-10T02:58:37.100Z,100.00
2022-10-10T03:01:04.153Z,100.00
2022-10-10T03:03:31.291Z,100.00
2022-10-10T03:05:58.283Z,100.00
2022-10-10T03:08:25.310Z,100.00
2022-10-10T03:10:56.858Z,100.00
2022-10-10T03:13:24.673Z,100.00
2022-10-10T03:15:52.474Z,100.00
2022-10-10T03:18:20.180Z,100.00
2022-10-10T03:20:51.846Z,100.00
2022-10-10T03:23:18.902Z,100.00
2022-10-10T03:25:45.940Z,100.00
2022-10-10T03:28:13.601Z,100.00
2022-10-10T03:30:41.178Z,100.00
2022-10-10T03:33:08.787Z,100.00
2022-10-10T03:35:36.790Z,100.00
2022-10-10T03:38:04.467Z,100.00
2022-10-10T03:40:32.318Z,100.00
2022-10-10T03:42:59.715Z,100.00
2022-10-10T03:45:26.757Z,100.00
2022-10-10T03:47:53.819Z,100.00
2022-10-10T03:50:20.835Z,100.00
2022-10-10T03:52:48.075Z,100.00
2022-10-10T03:55:15.423Z,100.00
2022-10-10T03:57:42.526Z,100.00
2022-10-10T04:00:10.455Z,100.00
2022-10-10T04:02:37.728Z,100.00
2022-10-10T04:05:05.265Z,100.00
2022-10-10T04:07:32.503Z,100.00
2022-10-10T04:09:59.520Z,100.00
2022-10-10T04:12:26.556Z,100.00
2022-10-10T04:14:53.578Z,100.00
2022-10-10T04:17:20.672Z,100.00
2022-10-10T04:19:47.757Z,100.00
2022-10-10T04:22:16.453Z,100.00
2022-10-10T04:24:44.037Z,100.00
2022-10-10T04:27:11.717Z,100.00
2022-10-10T04:29:39.010Z,100.00
2022-10-10T04:32:06.179Z,100.00
2022-10-10T04:34:33.498Z,100.00
2022-10-10T04:37:00.506Z,100.00
2022-10-10T04:39:27.660Z,100.00
2022-10-10T04:41:54.758Z,100.00
2022-10-10T04:44:21.752Z,100.00
2022-10-10T04:46:48.756Z,100.00
2022-10-10T04:49:15.735Z,100.00
2022-10-10T04:51:42.768Z,100.00
2022-10-10T04:54:10.093Z,100.00
2022-10-10T04:56:37.092Z,100.00
2022-10-10T04:59:04.183Z,100.00
2022-10-10T05:01:31.479Z,100.00
2022-10-10T05:03:59.194Z,100.00
2022-10-10T05:06:26.521Z,100.00
2022-10-10T05:08:53.539Z,100.00
2022-10-10T05:11:20.515Z,100.00
2022-10-10T05:13:49.827Z,100.00
2022-10-10T05:16:16.982Z,100.00
2022-10-10T05:18:44.066Z,100.00
2022-10-10T05:21:11.900Z,100.00
2022-10-10T05:23:41.230Z,100.00
2022-10-10T05:26:09.091Z,100.00
2022-10-10T05:28:36.674Z,100.00
2022-10-10T05:31:04.820Z,100.00
2022-10-10T05:33:33.518Z,100.00
2022-10-10T05:36:10.598Z,100.00
2022-10-10T05:38:39.045Z,100.00
2022-10-10T05:41:06.855Z,100.00
2022-10-10T05:43:35.240Z,100.00
2022-10-10T05:46:03.246Z,100.00
2022-10-10T05:48:30.823Z,100.00
2022-10-10T05:50:59.313Z,100.00
2022-10-10T05:53:27.819Z,100.00
2022-10-10T05:55:55.155Z,100.00
2022-10-10T05:58:22.176Z,100.00
2022-10-10T06:00:49.294Z,100.00
2022-10-10T06:03:17.473Z,100.00
2022-10-10T06:05:48.673Z,100.00
2022-10-10T06:08:15.761Z,100.00
2022-10-10T06:10:45.472Z,100.00
2022-10-10T06:13:14.049Z,100.00
2022-10-10T06:15:41.302Z,100.00
2022-10-10T06:18:09.095Z,100.00
2022-10-10T06:20:37.314Z,100.00
2022-10-10T06:23:05.375Z,100.00
2022-10-10T06:25:42.142Z,100.00
2022-10-10T06:28:10.729Z,100.00
2022-10-10T06:30:44.521Z,100.00
2022-10-10T06:33:12.609Z,100.00
2022-10-10T06:35:43.982Z,100.00
2022-10-10T06:38:12.261Z,100.00
2022-10-10T06:40:40.077Z,100.00
2022-10-10T06:43:12.162Z,100.00
2022-10-10T06:45:41.267Z,100.00
2022-10-10T06:48:09.488Z,100.00
2022-10-10T06:50:36.615Z,100.00
2022-10-10T06:53:04.284Z,100.00
2022-10-10T06:55:31.557Z,100.00
2022-10-10T06:57:58.926Z,100.00
2022-10-10T07:00:26.077Z,100.00
2022-10-10T07:02:53.525Z,100.00
2022-10-10T07:05:20.756Z,100.00
2022-10-10T07:07:47.747Z,100.00
2022-10-10T07:10:15.850Z,100.00
2022-10-10T07:12:44.980Z,100.00
2022-10-10T07:15:12.706Z,100.00
2022-10-10T07:17:39.916Z,100.00
2022-10-10T07:20:07.500Z,100.00
2022-10-10T07:22:34.846Z,100.00
2022-10-10T07:25:01.934Z,100.00
2022-10-10T07:27:28.938Z,100.00
2022-10-10T07:29:56.176Z,100.00
2022-10-10T07:32:23.135Z,100.00
2022-10-10T07:34:50.903Z,100.00
2022-10-10T07:37:17.937Z,100.00
2022-10-10T07:39:44.939Z,99.76
2022-10-10T07:42:12.087Z,99.40
2022-10-10T07:44:39.079Z,99.15
2022-10-10T07:47:06.192Z,99.87
2022-10-10T07:49:33.327Z,99.03
2022-10-10T07:52:01.614Z,97.71
2022-10-10T07:54:29.731Z,97.43
2022-10-10T07:56:57.660Z,96.08
2022-10-10T07:59:25.247Z,96.47
2022-10-10T08:01:52.374Z,96.42
2022-10-10T08:04:20.047Z,95.54
2022-10-10T08:06:48.198Z,94.42
2022-10-10T08:09:15.514Z,94.63
2022-10-10T08:11:42.744Z,94.69
2022-10-10T08:14:10.012Z,95.58
2022-10-10T08:16:37.042Z,94.64
2022-10-10T08:19:04.550Z,93.37
2022-10-10T08:21:31.657Z,93.82
2022-10-10T08:23:58.663Z,94.32
2022-10-10T08:26:25.882Z,92.98
2022-10-10T08:28:53.971Z,92.55
2022-10-10T08:31:21.881Z,91.63
2022-10-10T08:33:50.503Z,90.99
2022-10-10T08:36:20.351Z,90.66
2022-10-10T08:38:48.010Z,89.93
2022-10-10T08:41:27.603Z,89.25
2022-10-10T08:44:17.002Z,89.30
2022-10-10T08:46:58.025Z,89.05
2022-10-10T08:49:52.191Z,88.11
2022-10-10T08:52:53.993Z,87.34
2022-10-10T08:55:33.751Z,86.26
2022-10-10T08:58:12.613Z,86.26
2022-10-10T09:00:54.853Z,87.32
2022-10-10T09:03:43.406Z,87.37
2022-10-10T09:06:19.307Z,86.47
2022-10-10T09:09:01.315Z,86.33
2022-10-10T09:11:35.343Z,86.42
2022-10-10T09:14:39.514Z,85.46
2022-10-10T09:17:28.473Z,85.04
2022-10-10T09:20:32.655Z,86.70
2022-10-10T09:23:43.958Z,85.50
2022-10-10T09:26:17.429Z,85.14
2022-10-10T09:28:52.957Z,85.31
2022-10-10T09:31:38.611Z,83.93
2022-10-10T09:34:24.356Z,83.97
2022-10-10T09:36:54.171Z,83.90
2022-10-10T09:39:43.996Z,83.44
2022-10-10T09:42:15.333Z,84.25
2022-10-10T09:44:43.523Z,84.23
2022-10-10T09:47:16.823Z,85.00
2022-10-10T09:49:44.712Z,86.26
2022-10-10T09:52:26.724Z,84.63
2022-10-10T09:55:00.849Z,85.02
2022-10-10T09:57:39.033Z,85.60
2022-10-10T10:00:26.107Z,86.67
2022-10-10T10:03:12.154Z,86.50
2022-10-10T10:05:41.749Z,86.32
2022-10-10T10:08:20.121Z,86.50
2022-10-10T10:10:47.316Z,85.87
2022-10-10T10:13:24.184Z,86.52
2022-10-10T10:15:58.664Z,85.35
2022-10-10T10:18:28.752Z,86.93
2022-10-10T10:21:08.062Z,86.46
2022-10-10T10:23:41.677Z,85.28
2022-10-10T10:26:22.037Z,86.86
2022-10-10T10:28:51.409Z,85.18
2022-10-10T10:31:35.408Z,86.62
2022-10-10T10:34:36.346Z,86.23
2022-10-10T10:37:24.007Z,85.10
2022-10-10T10:40:17.659Z,84.43
2022-10-10T10:43:06.174Z,85.13
2022-10-10T10:46:09.742Z,83.77
2022-10-10T10:49:01.967Z,83.70
2022-10-10T10:51:46.487Z,84.51
2022-10-10T10:54:25.608Z,83.80
2022-10-10T10:57:11.118Z,83.72
2022-10-10T11:00:41.239Z,81.69
2022-10-10T11:04:15.653Z,82.10
2022-10-10T11:06:12.541Z,81.27
2022-10-10T11:09:04.419Z,80.92
2022-10-10T11:11:50.752Z,79.39
2022-10-10T11:14:39.612Z,79.50
2022-10-10T11:17:37.709Z,80.02
2022-10-10T11:20:16.522Z,77.27
2022-10-10T11:22:51.616Z,76.01
2022-10-10T11:25:26.391Z,76.13
2022-10-10T11:27:58.068Z,77.53
2022-10-10T11:30:29.167Z,75.52
2022-10-10T11:33:08.006Z,77.29
2022-10-10T11:35:38.436Z,75.05
2022-10-10T11:38:25.553Z,74.73
2022-10-10T11:41:08.356Z,75.10
2022-10-10T11:43:44.140Z,72.83
2022-10-10T11:46:52.811Z,71.50
2022-10-10T11:49:28.346Z,70.71
2022-10-10T11:51:58.118Z,68.38
2022-10-10T11:55:01.794Z,67.72
2022-10-10T11:57:53.437Z,66.15
2022-10-10T12:00:20.632Z,64.81
2022-10-10T12:02:48.441Z,65.23
2022-10-10T12:05:23.145Z,62.71
2022-10-10T12:08:04.633Z,60.72
2022-10-10T12:10:41.159Z,62.94
2022-10-10T12:13:30.206Z,63.49
2022-10-10T12:16:03.399Z,64.70
2022-10-10T12:18:44.790Z,62.55
2022-10-10T12:21:18.648Z,64.81
2022-10-10T12:24:04.543Z,63.09
2022-10-10T12:26:53.340Z,61.16
2022-10-10T12:30:09.493Z,58.52
2022-10-10T12:32:38.451Z,59.39
2022-10-10T12:35:29.577Z,62.58
2022-10-10T12:38:05.760Z,60.58
2022-10-10T12:40:34.245Z,60.62
2022-10-10T12:43:21.697Z,62.39
2022-10-10T12:45:55.684Z,61.11
2022-10-10T12:48:24.099Z,62.09
2022-10-10T12:51:00.551Z,61.66
2022-10-10T12:53:30.990Z,61.51
2022-10-10T12:56:01.180Z,61.09
2022-10-10T12:58:35.520Z,61.03
2022-10-10T13:01:07.746Z,62.76
2022-10-10T13:03:41.972Z,63.65
2022-10-10T13:06:41.064Z,63.12
2022-10-10T13:09:16.470Z,65.25
2022-10-10T13:11:54.684Z,64.11
2022-10-10T13:14:22.854Z,64.56
2022-10-10T13:16:49.912Z,64.84
2022-10-10T13:19:25.178Z,64.33
2022-10-10T13:21:54.655Z,64.09
2022-10-10T13:24:31.562Z,64.67
2022-10-10T13:26:58.914Z,64.48
2022-10-10T13:29:31.499Z,62.10
2022-10-10T13:32:00.415Z,63.84
2022-10-10T13:34:34.145Z,58.42
2022-10-10T13:37:03.144Z,59.62
2022-10-10T13:39:33.462Z,59.62
2022-10-10T13:42:00.882Z,60.11
2022-10-10T13:44:33.695Z,61.67
2022-10-10T13:47:35.652Z,63.68
2022-10-10T13:50:03.719Z,63.29
2022-10-10T13:52:30.733Z,62.99
2022-10-10T13:55:24.331Z,64.06
2022-10-10T13:57:58.242Z,63.68
2022-10-10T14:00:32.573Z,64.52
2022-10-10T14:02:59.982Z,64.64
2022-10-10T14:05:31.678Z,65.09
2022-10-10T14:08:00.096Z,65.07
2022-10-10T14:10:33.598Z,65.30
2022-10-10T14:13:01.272Z,65.73
2022-10-10T14:15:40.580Z,66.13
2022-10-10T14:18:25.594Z,66.23
2022-10-10T14:20:56.443Z,66.27
2022-10-10T14:23:23.526Z,66.80
2022-10-10T14:25:50.693Z,67.22
2022-10-10T14:28:20.716Z,66.84
2022-10-10T14:30:48.080Z,66.37
2022-10-10T14:33:18.127Z,67.00
2022-10-10T14:35:46.950Z,69.14
2022-10-10T14:38:14.607Z,68.06
2022-10-10T14:40:44.848Z,67.10
2022-10-10T14:43:12.171Z,65.38
2022-10-10T14:45:39.346Z,65.43
2022-10-10T14:48:06.664Z,66.01
2022-10-10T14:50:36.254Z,65.13
2022-10-10T14:53:04.392Z,64.77
2022-10-10T14:55:31.590Z,64.77
2022-10-10T14:57:58.572Z,64.61
2022-10-10T15:00:27.188Z,65.08
2022-10-10T15:02:54.751Z,66.03
2022-10-10T15:05:23.187Z,67.17
2022-10-10T15:07:53.519Z,68.89
2022-10-10T15:10:34.973Z,67.87
2022-10-10T15:13:03.312Z,68.68
2022-10-10T15:15:31.063Z,70.85
2022-10-10T15:17:59.099Z,70.25
2022-10-10T15:20:31.101Z,69.80
2022-10-10T15:23:05.486Z,70.22
2022-10-10T15:25:34.308Z,71.21
2022-10-10T15:28:02.751Z,70.42
2022-10-10T15:30:30.121Z,70.52
2022-10-10T15:32:57.100Z,70.48
2022-10-10T15:35:25.589Z,70.53
2022-10-10T15:37:53.005Z,70.34
2022-10-10T15:40:23.486Z,70.75
2022-10-10T15:42:51.371Z,71.69
2022-10-10T15:45:43.548Z,72.43
2022-10-10T15:48:06.692Z,72.09
2022-10-10T15:50:39.055Z,72.56
2022-10-10T15:53:06.034Z,72.97
2022-10-10T15:55:33.018Z,73.14
2022-10-10T15:58:00.066Z,73.47
2022-10-10T16:00:27.124Z,73.76
2022-10-10T16:02:54.113Z,74.41
2022-10-10T16:05:21.219Z,74.26
2022-10-10T16:07:48.628Z,75.95
2022-10-10T16:10:15.850Z,76.03
2022-10-10T16:12:42.915Z,77.08
2022-10-10T16:15:10.130Z,77.56
2022-10-10T16:17:37.115Z,78.92
2022-10-10T16:20:04.580Z,78.72
2022-10-10T16:22:31.579Z,79.63
2022-10-10T16:25:20.821Z,80.40
2022-10-10T16:27:46.163Z,81.27
2022-10-10T16:30:13.298Z,81.88
2022-10-10T16:32:42.632Z,81.86
2022-10-10T16:35:11.033Z,82.94
2022-10-10T16:37:39.273Z,83.08
2022-10-10T16:40:07.209Z,82.70
2022-10-10T16:42:34.535Z,82.40
2022-10-10T16:45:01.658Z,83.03
2022-10-10T16:47:28.656Z,83.01
2022-10-10T16:49:55.647Z,84.09
2022-10-10T16:52:22.707Z,84.85
2022-10-10T16:54:52.166Z,85.18
2022-10-10T16:57:20.317Z,85.50
2022-10-10T16:59:47.365Z,85.86
2022-10-10T17:02:14.530Z,86.51
2022-10-10T17:04:41.596Z,87.49
2022-10-10T17:07:08.977Z,88.00
2022-10-10T17:09:36.000Z,88.53
2022-10-10T17:12:03.495Z,88.46
2022-10-10T17:14:31.526Z,89.40
2022-10-10T17:17:11.507Z,89.46
2022-10-10T17:19:39.818Z,91.30
2022-10-10T17:22:06.823Z,89.18
2022-10-10T17:24:35.642Z,88.91
2022-10-10T17:27:02.985Z,89.34
2022-10-10T17:29:30.000Z,90.02
2022-10-10T17:32:01.573Z,91.06
2022-10-10T17:34:31.209Z,91.89
2022-10-10T17:36:58.251Z,92.94
2022-10-10T17:39:25.271Z,93.14
2022-10-10T17:41:52.335Z,92.41
2022-10-10T17:44:19.452Z,93.23
2022-10-10T17:46:46.470Z,93.77
2022-10-10T17:49:14.038Z,92.82
2022-10-10T17:51:41.263Z,91.96
2022-10-10T17:54:09.957Z,91.82
2022-10-10T17:56:37.477Z,90.74
2022-10-10T17:59:06.549Z,90.90
2022-10-10T18:01:37.996Z,90.12
2022-10-10T18:04:05.890Z,90.00
2022-10-10T18:06:33.705Z,89.67
2022-10-10T18:09:01.097Z,89.17
2022-10-10T18:11:30.614Z,89.86
2022-10-10T18:14:00.534Z,88.84
2022-10-10T18:16:30.571Z,89.10
2022-10-10T18:18:58.117Z,89.31
2022-10-10T18:21:26.109Z,89.45
2022-10-10T18:23:53.933Z,90.00
2022-10-10T18:26:26.834Z,88.17
2022-10-10T18:28:55.676Z,88.50
2022-10-10T18:31:28.256Z,88.22
2022-10-10T18:33:55.864Z,87.93
2022-10-10T18:36:25.116Z,87.05
2022-10-10T18:38:52.615Z,87.59
2022-10-10T18:41:22.576Z,88.78
2022-10-10T18:43:50.735Z,86.95
2022-10-10T18:46:20.430Z,87.91
2022-10-10T18:48:52.733Z,87.30
2022-10-10T18:51:24.480Z,87.46
2022-10-10T18:53:55.443Z,86.85
2022-10-10T18:56:25.764Z,86.29
2022-10-10T18:58:55.420Z,86.13
2022-10-10T19:01:26.412Z,86.88
2022-10-10T19:03:54.570Z,87.43
2022-10-10T19:06:23.355Z,87.23
2022-10-10T19:08:51.946Z,87.31
2022-10-10T19:11:24.755Z,87.41
2022-10-10T19:13:52.242Z,87.87
2022-10-10T19:16:19.786Z,87.63
2022-10-10T19:18:47.246Z,87.51
2022-10-10T19:21:15.258Z,87.11
2022-10-10T19:23:43.575Z,87.72
2022-10-10T19:26:13.114Z,87.71
2022-10-10T19:28:41.106Z,88.88
2022-10-10T19:31:14.075Z,89.28
2022-10-10T19:33:42.217Z,89.42
2022-10-10T19:36:11.740Z,89.58
2022-10-10T19:38:40.638Z,90.71
2022-10-10T19:41:13.327Z,90.17
2022-10-10T19:43:41.383Z,89.34
2022-10-10T19:46:10.737Z,89.44
2022-10-10T19:48:37.810Z,88.53
2022-10-10T19:51:07.027Z,88.85
2022-10-10T19:53:35.909Z,89.18
2022-10-10T19:56:08.533Z,88.97
2022-10-10T19:58:36.988Z,89.67
2022-10-10T20:01:10.001Z,88.70
2022-10-10T20:03:37.344Z,89.35
2022-10-10T20:06:05.432Z,89.45
2022-10-10T20:08:33.334Z,90.29
2022-10-10T20:11:00.884Z,90.79
2022-10-10T20:13:27.966Z,90.82
2022-10-10T20:16:00.216Z,91.05
2022-10-10T20:18:27.494Z,91.88
2022-10-10T20:20:54.642Z,91.42
2022-10-10T20:23:24.189Z,91.34
2022-10-10T20:25:52.464Z,91.62
2022-10-10T20:28:21.340Z,92.07
2022-10-10T20:30:50.526Z,91.63
2022-10-10T20:33:19.210Z,92.78
2022-10-10T20:35:49.348Z,93.54
2022-10-10T20:38:19.426Z,94.01
2022-10-10T20:40:46.602Z,94.93
2022-10-10T20:43:14.860Z,94.59
2022-10-10T20:45:42.048Z,95.56
2022-10-10T20:48:09.847Z,95.16
2022-10-10T20:50:38.135Z,96.36
2022-10-10T20:53:06.364Z,98.83
2022-10-10T20:55:33.816Z,100.00
2022-10-10T20:58:00.822Z,99.70
2022-10-10T21:00:27.849Z,99.67
2022-10-10T21:02:56.591Z,99.76
2022-10-10T21:05:23.694Z,99.99
2022-10-10T21:07:50.726Z,100.00
2022-10-10T21:10:17.768Z,98.85
2022-10-10T21:12:44.799Z,98.50
2022-10-10T21:15:11.805Z,98.29
2022-10-10T21:17:39.007Z,96.19
2022-10-10T21:20:07.096Z,96.56
2022-10-10T21:22:34.159Z,96.02
2022-10-10T21:25:01.196Z,95.49
2022-10-10T21:27:28.180Z,93.27
2022-10-10T21:29:55.210Z,93.30
2022-10-10T21:32:22.211Z,92.85
2022-10-10T21:34:52.039Z,90.90
2022-10-10T21:37:22.635Z,91.89
2022-10-10T21:39:49.619Z,89.14
2022-10-10T21:42:16.830Z,88.27
2022-10-10T21:44:43.834Z,89.17
2022-10-10T21:47:10.836Z,87.61
2022-10-10T21:49:37.850Z,87.02
2022-10-10T21:52:04.883Z,86.14
2022-10-10T21:54:31.885Z,85.72
2022-10-10T21:56:58.938Z,85.50
2022-10-10T21:59:30.106Z,84.43
2022-10-10T22:01:57.227Z,83.00
2022-10-10T22:04:28.690Z,84.67
2022-10-10T22:06:56.162Z,84.26
2022-10-10T22:09:23.193Z,85.98
2022-10-10T22:11:50.201Z,87.13
2022-10-10T22:14:17.470Z,87.35
2022-10-10T22:16:44.594Z,88.84
2022-10-10T22:19:11.579Z,88.40
2022-10-10T22:21:39.083Z,88.64
2022-10-10T22:24:07.434Z,89.32
2022-10-10T22:26:35.230Z,88.63
2022-10-10T22:29:02.353Z,89.61
2022-10-10T22:31:30.032Z,90.35
2022-10-10T22:33:58.014Z,90.28
2022-10-10T22:36:25.092Z,89.69
2022-10-10T22:38:52.188Z,90.07
2022-10-10T22:41:19.191Z,90.42
2022-10-10T22:43:46.230Z,90.51
2022-10-10T22:46:13.747Z,92.35
2022-10-10T22:48:40.995Z,92.29
2022-10-10T22:51:12.035Z,93.01
2022-10-10T22:53:40.500Z,92.53
2022-10-10T22:56:08.984Z,92.92
2022-10-10T22:58:36.815Z,93.25
2022-10-10T23:01:06.440Z,93.89
2022-10-10T23:03:33.636Z,94.69
2022-10-10T23:06:01.472Z,94.53
2022-10-10T23:08:29.406Z,95.33
2022-10-10T23:10:56.494Z,96.39
2022-10-10T23:13:23.680Z,96.93
2022-10-10T23:15:50.806Z,96.93
2022-10-10T23:18:17.866Z,96.85
2022-10-10T23:20:46.819Z,96.72
2022-10-10T23:23:14.647Z,98.10
2022-10-10T23:25:46.518Z,98.15
2022-10-10T23:28:14.714Z,97.61
2022-10-10T23:30:43.703Z,98.85
2022-10-10T23:33:11.699Z,99.73
2022-10-10T23:35:38.976Z,99.49
2022-10-10T23:38:06.210Z,99.72
2022-10-10T23:40:33.920Z,99.40
2022-10-10T23:43:01.325Z,99.97
2022-10-10T23:45:28.376Z,100.00
2022-10-10T23:47:55.437Z,100.00
2022-10-10T23:50:22.583Z,100.00
2022-10-10T23:52:49.656Z,100.00
2022-10-10T23:55:16.820Z,100.00
2022-10-10T23:57:43.917Z,100.00
